createdAt,value
2023-05-19T00:02:06.195Z,101323.36
2023-05-19T00:04:35.657Z,101317.70
2023-05-19T00:07:02.682Z,101315.66
2023-05-19T00:09:30.765Z,101313.77
2023-05-19T00:11:58.274Z,101308.95
2023-05-19T00:14:26.483Z,101304.80
2023-05-19T00:16:56.214Z,101300.29
2023-05-19T00:19:25.373Z,101302.71
2023-05-19T00:21:53.063Z,101293.22
2023-05-19T00:24:20.102Z,101291.17
2023-05-19T00:26:47.592Z,101286.02
2023-05-19T00:29:18.687Z,101286.56
2023-05-19T00:31:46.945Z,101282.80
2023-05-19T00:34:14.122Z,101281.27
2023-05-19T00:36:41.374Z,101278.18
2023-05-19T00:39:08.643Z,101273.89
2023-05-19T00:41:35.712Z,101273.41
2023-05-19T00:44:02.843Z,101268.61
2023-05-19T00:46:30.887Z,101269.52
2023-05-19T00:48:58.247Z,101265.94
2023-05-19T00:51:27.880Z,101267.84
2023-05-19T00:53:55.003Z,101268.57
2023-05-19T00:56:22.767Z,101269.98
2023-05-19T00:58:51.353Z,101268.95
2023-05-19T01:01:21.754Z,101271.05
2023-05-19T01:03:49.971Z,101266.40
2023-05-19T01:06:19.485Z,101267.48
2023-05-19T01:08:47.017Z,101269.22
2023-05-19T01:11:14.167Z,101269.08
2023-05-19T01:13:42.171Z,101272.74
2023-05-19T01:16:13.871Z,101272.24
2023-05-19T01:18:56.539Z,101274.52
2023-05-19T01:21:55.699Z,101280.59
2023-05-19T01:24:47.114Z,101279.71
2023-05-19T01:27:32.609Z,101284.89
2023-05-19T01:30:09.163Z,101285.77
2023-05-19T01:32:36.132Z,101295.27
2023-05-19T01:35:03.969Z,101309.23
2023-05-19T01:37:31.484Z,101318.73
2023-05-19T01:39:58.683Z,101325.82
2023-05-19T01:42:25.729Z,101334.62
2023-05-19T01:44:53.491Z,101346.88
2023-05-19T01:47:20.659Z,101354.14
2023-05-19T01:49:47.686Z,101361.73
2023-05-19T01:52:15.388Z,101364.67
2023-05-19T01:54:42.506Z,101360.86
2023-05-19T01:57:20.302Z,101358.93
2023-05-19T02:00:00.251Z,101354.80
2023-05-19T02:02:34.822Z,101350.48
2023-05-19T02:05:08.167Z,101350.14
2023-05-19T02:08:16.698Z,101346.86
2023-05-19T02:10:45.908Z,101342.55
2023-05-19T02:13:14.452Z,101345.14
2023-05-19T02:15:42.624Z,101342.73
2023-05-19T02:18:13.060Z,101338.76
2023-05-19T02:20:40.923Z,101336.50
2023-05-19T02:23:08.382Z,101336.50
2023-05-19T02:25:35.597Z,101337.20
2023-05-19T02:28:02.787Z,101337.34
2023-05-19T02:30:31.952Z,101335.09
2023-05-19T02:33:00.821Z,101340.92
2023-05-19T02:35:28.319Z,101333.51
2023-05-19T02:37:55.369Z,101333.34
2023-05-19T02:40:23.240Z,101332.46
2023-05-19T02:42:50.519Z,101327.61
2023-05-19T02:45:18.884Z,101327.58
2023-05-19T02:47:46.314Z,101331.36
2023-05-19T02:50:13.577Z,101338.59
2023-05-19T02:52:40.520Z,101347.17
2023-05-19T02:55:08.893Z,101359.40
2023-05-19T02:57:36.060Z,101381.30
2023-05-19T03:00:03.722Z,101393.35
2023-05-19T03:02:31.082Z,101417.33
2023-05-19T03:05:01.902Z,101435.42
2023-05-19T03:07:28.961Z,101446.80
2023-05-19T03:09:55.912Z,101455.21
2023-05-19T03:12:22.946Z,101445.30
2023-05-19T03:14:50.496Z,101427.79
2023-05-19T03:17:17.662Z,101378.45
2023-05-19T03:19:45.006Z,101327.05
2023-05-19T03:22:12.150Z,101275.10
2023-05-19T03:24:39.813Z,101211.88
2023-05-19T03:27:07.893Z,101154.86
2023-05-19T03:29:35.131Z,101099.52
2023-05-19T03:32:02.817Z,101044.81
2023-05-19T03:34:32.841Z,100997.63
2023-05-19T03:37:00.068Z,100935.48
2023-05-19T03:39:27.316Z,100865.33
2023-05-19T03:41:54.467Z,100812.48
2023-05-19T03:44:21.507Z,100775.38
2023-05-19T03:46:49.077Z,100750.00
2023-05-19T03:49:35.053Z,100732.23
2023-05-19T03:52:34.050Z,100730.80
2023-05-19T03:55:10.223Z,100736.19
2023-05-19T03:57:38.089Z,100748.81
2023-05-19T04:00:06.995Z,100775.02
2023-05-19T04:02:40.215Z,100806.00
2023-05-19T04:05:08.714Z,100841.52
2023-05-19T04:07:38.881Z,100876.06
2023-05-19T04:10:07.783Z,100906.70
2023-05-19T04:12:35.926Z,100936.21
2023-05-19T04:15:03.186Z,100960.81
2023-05-19T04:17:30.349Z,100978.42
2023-05-19T04:19:58.095Z,100992.58
2023-05-19T04:22:25.131Z,101008.63
2023-05-19T04:24:53.304Z,101022.70
2023-05-19T04:27:22.220Z,101025.54
2023-05-19T04:29:50.138Z,101040.21
2023-05-19T04:32:20.437Z,101043.49
2023-05-19T04:34:48.968Z,101045.77
2023-05-19T04:37:21.242Z,101049.49
2023-05-19T04:39:49.200Z,101058.39
2023-05-19T04:42:19.600Z,101055.58
2023-05-19T04:44:52.132Z,101049.08
2023-05-19T04:47:21.727Z,101046.31
2023-05-19T04:49:49.893Z,101047.20
2023-05-19T04:52:21.974Z,101040.16
2023-05-19T04:54:49.944Z,101043.40
2023-05-19T04:57:17.580Z,101032.21
2023-05-19T04:59:46.677Z,101038.80
2023-05-19T05:02:13.889Z,101032.78
2023-05-19T05:04:44.330Z,101042.23
2023-05-19T05:07:16.952Z,101031.29
2023-05-19T05:09:44.474Z,101039.90
2023-05-19T05:12:13.667Z,101039.48
2023-05-19T05:14:42.099Z,101029.59
2023-05-19T05:17:09.807Z,101015.70
2023-05-19T05:19:37.558Z,101004.66
2023-05-19T05:22:06.304Z,101023.58
2023-05-19T05:24:34.428Z,100965.90
2023-05-19T05:27:04.001Z,100915.77
2023-05-19T05:29:31.485Z,100910.98
2023-05-19T05:31:58.513Z,100836.89
2023-05-19T05:34:26.096Z,100830.26
2023-05-19T05:39:41.223Z,100707.44
2023-05-19T05:42:11.209Z,100688.26
2023-05-19T05:44:40.408Z,100615.81
2023-05-19T05:47:08.224Z,100643.19
2023-05-19T05:49:38.492Z,100606.93
2023-05-19T05:52:07.135Z,100577.35
2023-05-19T05:54:41.244Z,100534.13
2023-05-19T05:57:09.369Z,100619.14
2023-05-19T05:59:36.953Z,100617.07
2023-05-19T06:02:04.614Z,100570.96
2023-05-19T06:04:33.494Z,100583.20
2023-05-19T06:07:01.869Z,100631.88
2023-05-19T06:09:33.828Z,100593.23
2023-05-19T06:12:01.303Z,100625.23
2023-05-19T06:14:30.960Z,100574.52
2023-05-19T06:17:13.045Z,100565.88
2023-05-19T06:19:40.336Z,100564.63
2023-05-19T06:22:07.580Z,100492.69
2023-05-19T06:24:35.687Z,100448.35
2023-05-19T06:27:04.017Z,100434.85
2023-05-19T06:29:31.020Z,100340.13
2023-05-19T06:32:00.577Z,100257.73
2023-05-19T06:34:27.557Z,100297.31
2023-05-19T06:39:41.790Z,100221.22
2023-05-19T06:42:09.044Z,100240.73
2023-05-19T06:44:55.971Z,100282.73
2023-05-19T06:47:23.434Z,100122.10
2023-05-19T06:49:55.511Z,100163.93
2023-05-19T06:52:25.189Z,100082.95
2023-05-19T06:54:52.950Z,100002.90
2023-05-19T06:57:21.228Z,100119.77
2023-05-19T06:59:48.413Z,100127.32
2023-05-19T07:02:15.386Z,100021.70
2023-05-19T07:04:43.217Z,99990.86
2023-05-19T07:07:11.867Z,99933.89
2023-05-19T07:09:39.431Z,100004.40
2023-05-19T07:12:06.903Z,99917.44
2023-05-19T07:14:34.238Z,99708.20
2023-05-19T07:17:01.593Z,99628.20
2023-05-19T07:19:29.038Z,99652.39
2023-05-19T07:21:57.314Z,99543.73
2023-05-19T07:24:25.121Z,99281.73
2023-05-19T07:26:52.558Z,99278.02
2023-05-19T07:29:19.700Z,99151.62
2023-05-19T07:31:46.859Z,99024.80
2023-05-19T07:34:13.845Z,98969.02
2023-05-19T07:36:41.780Z,98952.48
2023-05-19T07:39:08.983Z,98945.25
2023-05-19T07:41:36.528Z,98940.39
2023-05-19T07:44:08.066Z,98970.14
2023-05-19T07:46:35.326Z,98896.16
2023-05-19T07:49:02.519Z,98906.27
2023-05-19T07:51:29.665Z,98871.73
2023-05-19T07:53:57.734Z,98931.91
2023-05-19T07:56:25.198Z,98794.50
2023-05-19T07:58:52.339Z,98788.68
2023-05-19T08:01:19.388Z,98801.29
2023-05-19T08:03:46.348Z,98813.57
2023-05-19T08:06:13.537Z,98896.96
2023-05-19T08:08:40.833Z,98861.02
2023-05-19T08:11:07.981Z,98938.15
2023-05-19T08:13:35.050Z,98939.16
2023-05-19T08:16:02.107Z,98900.05
2023-05-19T08:18:29.636Z,99020.86
2023-05-19T08:20:56.787Z,99110.91
2023-05-19T08:23:23.832Z,98931.92
2023-05-19T08:25:51.192Z,98908.14
2023-05-19T08:28:18.340Z,98923.48
2023-05-19T08:30:45.277Z,98920.03
2023-05-19T08:33:12.730Z,99004.17
2023-05-19T08:35:39.676Z,99004.35
2023-05-19T08:38:07.049Z,99113.30
2023-05-19T08:40:34.220Z,99070.88
2023-05-19T08:43:01.432Z,98924.66
2023-05-19T08:45:28.490Z,98728.63
2023-05-19T08:47:56.063Z,98744.81
2023-05-19T08:53:31.863Z,98502.58
2023-05-19T08:56:15.669Z,98438.23
2023-05-19T08:58:44.147Z,98343.84
2023-05-19T09:01:13.813Z,98379.89
2023-05-19T09:03:41.415Z,98497.91
2023-05-19T09:06:09.692Z,98666.80
2023-05-19T09:08:37.533Z,98709.27
2023-05-19T09:11:04.904Z,98714.18
2023-05-19T09:13:32.153Z,98762.04
2023-05-19T09:15:59.323Z,98823.98
2023-05-19T09:18:26.985Z,98785.30
2023-05-19T09:21:01.069Z,98694.68
2023-05-19T09:23:34.161Z,98594.67
2023-05-19T09:26:08.264Z,98579.25
2023-05-19T09:28:36.484Z,98602.69
2023-05-19T09:31:07.851Z,98511.16
2023-05-19T09:33:36.343Z,98456.09
2023-05-19T09:36:06.214Z,98459.48
2023-05-19T09:38:33.431Z,98282.91
2023-05-19T09:41:00.947Z,98230.52
2023-05-19T09:43:33.523Z,98102.07
2023-05-19T09:46:03.285Z,98155.80
2023-05-19T09:48:30.732Z,98074.13
2023-05-19T09:50:58.291Z,98055.00
2023-05-19T09:53:25.857Z,98026.13
2023-05-19T09:55:57.869Z,97783.23
2023-05-19T09:58:26.478Z,97747.58
2023-05-19T10:00:57.400Z,97841.89
2023-05-19T10:03:24.582Z,97903.00
2023-05-19T10:05:51.829Z,97951.58
2023-05-19T10:08:18.884Z,97983.49
2023-05-19T10:10:46.992Z,98046.34
2023-05-19T10:13:14.101Z,98065.59
2023-05-19T10:15:57.113Z,98039.48
2023-05-19T10:18:26.360Z,98099.95
2023-05-19T10:20:53.824Z,98203.14
2023-05-19T10:23:21.332Z,98280.38
2023-05-19T10:25:49.509Z,98295.83
2023-05-19T10:28:17.612Z,98270.61
2023-05-19T10:30:46.257Z,98185.71
2023-05-19T10:33:18.298Z,98142.85
2023-05-19T10:36:02.775Z,98119.88
2023-05-19T10:38:50.816Z,98045.05
2023-05-19T10:41:47.877Z,98062.38
2023-05-19T10:44:21.601Z,98081.10
2023-05-19T10:46:49.648Z,98149.38
2023-05-19T10:49:23.264Z,98217.41
2023-05-19T10:51:50.702Z,98330.88
2023-05-19T10:54:18.573Z,98417.05
2023-05-19T10:56:48.786Z,98495.46
2023-05-19T10:59:32.535Z,98543.98
2023-05-19T11:02:04.300Z,98671.02
2023-05-19T11:04:51.362Z,98704.20
2023-05-19T11:07:24.872Z,98724.13
2023-05-19T11:09:52.377Z,98675.30
2023-05-19T11:12:24.819Z,98611.88
2023-05-19T11:14:54.220Z,98634.48
2023-05-19T11:17:22.523Z,98536.29
2023-05-19T11:19:54.826Z,98559.73
2023-05-19T11:22:26.267Z,98423.41
2023-05-19T11:24:57.373Z,98387.33
2023-05-19T11:27:34.671Z,98407.39
2023-05-19T11:30:14.972Z,98294.35
2023-05-19T11:32:43.025Z,98305.23
2023-05-19T11:35:10.431Z,98324.54
2023-05-19T11:37:37.805Z,98360.30
2023-05-19T11:40:09.283Z,98542.58
2023-05-19T11:42:37.419Z,98530.98
2023-05-19T11:45:06.268Z,98462.76
2023-05-19T11:47:42.078Z,98509.88
2023-05-19T11:50:15.170Z,98570.16
2023-05-19T11:52:45.271Z,98548.78
2023-05-19T11:55:22.677Z,98464.99
2023-05-19T11:58:04.017Z,98429.95
2023-05-19T12:00:40.100Z,98308.16
2023-05-19T12:03:08.316Z,98276.51
2023-05-19T12:05:47.419Z,98249.59
2023-05-19T12:08:15.044Z,98212.18
2023-05-19T12:10:42.306Z,98209.33
2023-05-19T12:13:10.137Z,98177.52
2023-05-19T12:15:38.038Z,98152.44
2023-05-19T12:18:05.965Z,98158.09
2023-05-19T12:20:33.185Z,98191.34
2023-05-19T12:23:00.906Z,98177.86
2023-05-19T12:25:29.516Z,97975.73
2023-05-19T12:28:05.707Z,97931.55
2023-05-19T12:30:34.443Z,97917.61
2023-05-19T12:33:02.806Z,97795.96
2023-05-19T12:35:33.218Z,97779.60
2023-05-19T12:38:07.050Z,97814.24
2023-05-19T12:40:36.335Z,97809.65
2023-05-19T12:43:04.444Z,97852.55
2023-05-19T12:45:42.690Z,97860.50
2023-05-19T12:48:19.275Z,97888.77
2023-05-19T12:50:46.402Z,97871.91
2023-05-19T12:53:13.890Z,97962.02
2023-05-19T12:55:44.393Z,98021.42
2023-05-19T12:58:12.308Z,98096.58
2023-05-19T13:00:43.947Z,98093.09
2023-05-19T13:03:18.111Z,98043.40
2023-05-19T13:05:46.780Z,97947.91
2023-05-19T13:08:18.656Z,97864.09
2023-05-19T13:10:46.860Z,97786.67
2023-05-19T13:13:13.961Z,97769.98
2023-05-19T13:15:45.315Z,97697.15
2023-05-19T13:18:13.019Z,97692.02
2023-05-19T13:20:40.739Z,97621.42
2023-05-19T13:23:07.718Z,97578.41
2023-05-19T13:25:34.773Z,97677.80
2023-05-19T13:28:05.134Z,97685.16
2023-05-19T13:30:33.445Z,97659.40
2023-05-19T13:33:00.659Z,97700.55
2023-05-19T13:38:43.865Z,97419.52
2023-05-19T13:41:12.174Z,97398.58
2023-05-19T13:43:41.169Z,97264.35
2023-05-19T13:46:08.098Z,97229.19
2023-05-19T13:48:35.153Z,97223.83
2023-05-19T13:51:02.606Z,97251.62
2023-05-19T13:53:31.333Z,97221.77
2023-05-19T13:55:58.223Z,97274.92
2023-05-19T13:58:25.210Z,97372.80
2023-05-19T14:00:54.850Z,97392.58
2023-05-19T14:03:21.988Z,97450.92
2023-05-19T14:05:49.193Z,97440.00
2023-05-19T14:08:16.543Z,97456.27
2023-05-19T14:10:43.554Z,97538.41
2023-05-19T14:13:30.818Z,97646.81
2023-05-19T14:15:59.726Z,97695.26
2023-05-19T14:18:26.851Z,97722.62
2023-05-19T14:20:53.990Z,97755.10
2023-05-19T14:23:21.863Z,97837.15
2023-05-19T14:25:49.006Z,97825.73
2023-05-19T14:28:16.363Z,97882.61
2023-05-19T14:30:43.696Z,97899.38
2023-05-19T14:33:11.430Z,97953.79
2023-05-19T14:35:38.767Z,97988.11
2023-05-19T14:38:05.672Z,97959.93
2023-05-19T14:40:32.907Z,97971.35
2023-05-19T14:43:00.994Z,98025.61
2023-05-19T14:45:28.344Z,98050.83
2023-05-19T14:47:55.369Z,98095.50
2023-05-19T14:50:22.664Z,98141.34
2023-05-19T14:52:49.560Z,98154.30
2023-05-19T14:55:16.842Z,98189.64
2023-05-19T14:57:43.802Z,98187.45
2023-05-19T15:00:12.312Z,98267.37
2023-05-19T15:02:39.465Z,98296.79
2023-05-19T15:05:07.144Z,98193.89
2023-05-19T15:07:34.343Z,98182.36
2023-05-19T15:10:02.357Z,98244.89
2023-05-19T15:12:30.776Z,98190.13
2023-05-19T15:14:57.928Z,98193.91
2023-05-19T15:17:25.161Z,98220.41
2023-05-19T15:19:53.791Z,98249.40
2023-05-19T15:22:21.064Z,98190.70
2023-05-19T15:24:48.296Z,98173.48
2023-05-19T15:27:15.514Z,98187.10
2023-05-19T15:29:42.880Z,98265.82
2023-05-19T15:32:09.810Z,98310.46
2023-05-19T15:34:36.963Z,98358.96
2023-05-19T15:37:04.435Z,98414.49
2023-05-19T15:39:31.772Z,98446.55
2023-05-19T15:41:58.818Z,98449.63
2023-05-19T15:44:27.628Z,98473.71
2023-05-19T15:46:56.185Z,98508.96
2023-05-19T15:49:25.293Z,98533.98
2023-05-19T15:51:52.336Z,98567.86
2023-05-19T15:54:19.477Z,98629.92
2023-05-19T15:56:46.624Z,98658.86
2023-05-19T15:59:14.216Z,98680.14
2023-05-19T16:01:41.279Z,98685.99
2023-05-19T16:04:08.336Z,98721.35
2023-05-19T16:06:35.907Z,98756.69
2023-05-19T16:09:06.373Z,98771.17
2023-05-19T16:11:33.414Z,98808.83
2023-05-19T16:14:00.458Z,98837.78
2023-05-19T16:16:27.576Z,98855.08
2023-05-19T16:18:54.815Z,98864.14
2023-05-19T16:21:22.420Z,98894.27
2023-05-19T16:23:49.465Z,98919.60
2023-05-19T16:26:16.863Z,98953.63
2023-05-19T16:28:43.778Z,98967.66
2023-05-19T16:31:10.963Z,99016.23
2023-05-19T16:33:40.214Z,99032.59
2023-05-19T16:36:07.361Z,99069.45
2023-05-19T16:38:34.422Z,99085.41
2023-05-19T16:41:01.361Z,99121.87
2023-05-19T16:43:28.401Z,99153.16
2023-05-19T16:45:55.618Z,99195.29
2023-05-19T16:48:22.802Z,99238.22
2023-05-19T16:50:49.894Z,99286.30
2023-05-19T16:53:16.892Z,99331.61
2023-05-19T16:55:44.426Z,99376.11
2023-05-19T16:58:11.921Z,99417.02
2023-05-19T17:00:39.156Z,99487.02
2023-05-19T17:03:06.396Z,99529.70
2023-05-19T17:05:33.436Z,99563.88
2023-05-19T17:08:01.316Z,99608.44
2023-05-19T17:10:28.469Z,99679.14
2023-05-19T17:12:55.443Z,99769.61
2023-05-19T17:15:23.025Z,99844.73
2023-05-19T17:17:49.961Z,99925.55
2023-05-19T17:20:17.981Z,100017.18
2023-05-19T17:22:45.033Z,100104.49
2023-05-19T17:25:13.006Z,100168.64
2023-05-19T17:27:39.972Z,100220.69
2023-05-19T17:30:08.910Z,100260.89
2023-05-19T17:32:38.661Z,100353.20
2023-05-19T17:35:06.918Z,100383.74
2023-05-19T17:37:34.076Z,100435.11
2023-05-19T17:40:01.215Z,100437.48
2023-05-19T17:42:29.386Z,100471.94
2023-05-19T17:44:56.902Z,100522.22
2023-05-19T17:47:24.000Z,100592.38
2023-05-19T17:49:55.956Z,100668.45
2023-05-19T17:52:24.002Z,100759.80
2023-05-19T17:54:52.205Z,100823.52
2023-05-19T17:57:19.655Z,100878.90
2023-05-19T17:59:47.312Z,100921.63
2023-05-19T18:02:15.791Z,100964.83
2023-05-19T18:04:43.970Z,100984.25
2023-05-19T18:07:12.021Z,101049.17
2023-05-19T18:09:39.187Z,101111.11
2023-05-19T18:12:06.930Z,101173.30
2023-05-19T18:14:34.127Z,101224.88
2023-05-19T18:17:01.378Z,101266.52
2023-05-19T18:19:28.546Z,101297.96
2023-05-19T18:21:56.361Z,101347.66
2023-05-19T18:24:23.411Z,101390.04
2023-05-19T18:26:50.375Z,101416.95
2023-05-19T18:29:17.405Z,101443.70
2023-05-19T18:31:44.377Z,101498.95
2023-05-19T18:34:11.505Z,101557.87
2023-05-19T18:36:38.647Z,101610.34
2023-05-19T18:39:05.791Z,101647.64
2023-05-19T18:41:32.885Z,101690.66
2023-05-19T18:43:59.884Z,101750.71
2023-05-19T18:46:27.144Z,101794.05
2023-05-19T18:48:54.389Z,101784.27
2023-05-19T18:51:22.048Z,101635.35
2023-05-19T18:53:50.330Z,101340.38
2023-05-19T18:56:27.108Z,101094.91
2023-05-19T18:58:54.483Z,100995.77
2023-05-19T19:01:21.688Z,100936.77
2023-05-19T19:03:49.641Z,100899.47
2023-05-19T19:06:21.130Z,100858.00
2023-05-19T19:08:48.578Z,100824.19
2023-05-19T19:11:15.869Z,100796.96
2023-05-19T19:13:43.900Z,100784.67
2023-05-19T19:16:11.363Z,100782.95
2023-05-19T19:18:38.670Z,100790.41
2023-05-19T19:21:06.121Z,100794.77
2023-05-19T19:23:33.490Z,100791.31
2023-05-19T19:26:00.730Z,100789.91
2023-05-19T19:28:28.025Z,100785.02
2023-05-19T19:30:55.065Z,100781.84
2023-05-19T19:33:22.125Z,100778.47
2023-05-19T19:35:49.282Z,100776.89
2023-05-19T19:38:16.373Z,100777.17
2023-05-19T19:40:43.719Z,100789.60
2023-05-19T19:43:10.819Z,100800.81
2023-05-19T19:45:39.717Z,100805.29
2023-05-19T19:48:07.329Z,100795.95
2023-05-19T19:50:35.350Z,100792.63
2023-05-19T19:53:02.479Z,100802.48
2023-05-19T19:55:30.856Z,100823.08
2023-05-19T19:57:58.006Z,100843.24
2023-05-19T20:00:25.276Z,100861.37
2023-05-19T20:03:04.582Z,100887.84
2023-05-19T20:05:33.116Z,100910.51
2023-05-19T20:08:00.241Z,100911.23
2023-05-19T20:10:27.484Z,100902.31
2023-05-19T20:12:54.623Z,100893.12
2023-05-19T20:15:21.589Z,100907.91
2023-05-19T20:17:48.637Z,100925.59
2023-05-19T20:20:15.978Z,100932.39
2023-05-19T20:22:46.174Z,100920.56
2023-05-19T20:25:13.753Z,100890.88
2023-05-19T20:27:40.935Z,100859.41
2023-05-19T20:30:09.277Z,100837.33
2023-05-19T20:32:36.660Z,100832.09
2023-05-19T20:35:03.804Z,100841.80
2023-05-19T20:37:31.324Z,100858.27
2023-05-19T20:39:58.828Z,100879.05
2023-05-19T20:42:25.872Z,100891.30
2023-05-19T20:44:53.540Z,100891.97
2023-05-19T20:47:21.282Z,100894.71
2023-05-19T20:49:48.725Z,100892.95
2023-05-19T20:52:16.205Z,100895.84
2023-05-19T20:54:43.332Z,100899.75
2023-05-19T20:57:10.890Z,100912.64
2023-05-19T20:59:38.340Z,100927.08
2023-05-19T21:02:06.546Z,100957.23
2023-05-19T21:04:34.336Z,101003.37
2023-05-19T21:07:01.475Z,101037.40
2023-05-19T21:11:22.653Z,101111.06
2023-05-19T21:13:51.391Z,101188.20
2023-05-19T21:16:18.507Z,101253.71
2023-05-19T21:18:45.563Z,101309.71
2023-05-19T21:21:12.983Z,101362.92
2023-05-19T21:23:40.035Z,101415.93
2023-05-19T21:26:07.698Z,101455.08
2023-05-19T21:28:34.740Z,101486.44
2023-05-19T21:31:01.979Z,101506.89
2023-05-19T21:33:29.451Z,101521.44
2023-05-19T21:36:01.077Z,101533.37
2023-05-19T21:38:28.570Z,101544.12
2023-05-19T21:40:59.123Z,101543.98
2023-05-19T21:43:26.466Z,101549.02
2023-05-19T21:45:54.096Z,101553.36
2023-05-19T21:48:21.914Z,101557.02
2023-05-19T21:50:55.873Z,101557.41
2023-05-19T21:53:22.923Z,101547.52
2023-05-19T21:55:50.378Z,101519.21
2023-05-19T21:58:18.448Z,101462.55
2023-05-19T22:00:50.872Z,101381.16
2023-05-19T22:03:18.065Z,101266.04
2023-05-19T22:05:52.615Z,101162.90
2023-05-19T22:08:20.154Z,101091.11
2023-05-19T22:10:51.172Z,101044.30
2023-05-19T22:13:19.124Z,100987.43
2023-05-19T22:15:46.817Z,100932.07
2023-05-19T22:18:13.868Z,100896.46
2023-05-19T22:20:40.915Z,100885.30
2023-05-19T22:23:07.962Z,100888.52
2023-05-19T22:25:36.336Z,100892.65
2023-05-19T22:28:03.387Z,100895.85
2023-05-19T22:30:31.059Z,100903.23
2023-05-19T22:32:58.223Z,100913.38
2023-05-19T22:35:26.159Z,100921.43
2023-05-19T22:37:53.203Z,100938.98
2023-05-19T22:40:20.662Z,100969.81
2023-05-19T22:42:47.917Z,101023.84
2023-05-19T22:45:15.625Z,101098.72
2023-05-19T22:47:42.865Z,101157.91
2023-05-19T22:50:11.137Z,101199.48
2023-05-19T22:52:38.762Z,101230.69
2023-05-19T22:55:06.633Z,101265.48
2023-05-19T22:57:33.672Z,101301.47
2023-05-19T23:00:01.214Z,101333.66
2023-05-19T23:02:28.398Z,101361.00
2023-05-19T23:04:56.046Z,101382.10
2023-05-19T23:07:23.601Z,101396.29
2023-05-19T23:09:50.644Z,101421.88
2023-05-19T23:12:17.896Z,101445.38
2023-05-19T23:14:45.049Z,101468.70
2023-05-19T23:17:12.245Z,101490.62
2023-05-19T23:19:39.446Z,101503.89
2023-05-19T23:22:07.003Z,101515.11
2023-05-19T23:24:34.048Z,101528.39
2023-05-19T23:27:01.414Z,101538.71
2023-05-19T23:29:28.454Z,101552.19
2023-05-19T23:31:55.496Z,101559.75
2023-05-19T23:34:22.551Z,101566.29
2023-05-19T23:36:49.475Z,101571.24
2023-05-19T23:39:16.747Z,101569.84
2023-05-19T23:41:43.696Z,101567.40
2023-05-19T23:44:10.852Z,101570.76
2023-05-19T23:46:37.979Z,101569.11
2023-05-19T23:49:05.653Z,101569.23
2023-05-19T23:51:32.630Z,101572.50
2023-05-19T23:53:59.525Z,101574.20
2023-05-19T23:56:26.509Z,101569.17
2023-05-19T23:58:53.536Z,101569.14
